• Join FlightAware (Why Join?)
  • Login
  • US Flag 
03:00PM EDT


 

Airport Tracker/Info


-or-


 

Live Flight TrackerFlight Track Log ✈ EJA831 ✈ 23-Apr-2013 ✈ KMTN - KBTP

Flight Track Log - Related Links

Times and Time Zones

All times are in EDT time to prevent confusion due to time zone crossing. See the EJA831 flight status page for this flight to view local times or setup timezone preferences in your user account.

Time Position Orientation Groundspeed Altitude Reporting Facility
EDT Latitude Longitude Course Direction KTS MPH feet Rate Location/Type
08:47AM 39.3500 -76.4500 276° West 190 219 1,900  Level Potomac TRACON
08:48AM 39.3667 -76.5167 288° West 230 265 4,800 2,460 Climbing Potomac TRACON
08:49AM 39.3833 -76.6167 282° West 256 295 6,900 1,980 Climbing Potomac TRACON
08:50AM 39.3500 -76.7000 243° Southwest 282 325 8,800 2,340 Climbing Potomac TRACON
08:52AM 39.2942 -76.8681 247° West 315 362 13,800 2,580 Climbing Washington Center
08:53AM 39.3883 -76.9973 276° West  Level FlightAware Approximate
08:53AM 39.3281 -77.0083 287° West 307 353 16,300  Level Washington Center
08:54AM 39.3558 -77.1269 287° West 330 380 17,000 900 Climbing Washington Center
08:55AM 39.3814 -77.2483 285° West 342 394 18,200 1,500 Climbing Washington Center
08:56AM 39.4108 -77.3725 287° West 348 400 20,000 900 Climbing Washington Center
08:57AM 39.4361 -77.4994 284° West 365 420 20,000  Level Washington Center
08:58AM 39.4672 -77.6267 288° West 370 426 20,000  Level Washington Center
08:59AM 39.5067 -77.7542 292° West 376 433 20,000  Level Washington Center
09:01AM 39.5744 -77.9761 292° West 390 449 20,000  Level Cleveland Center
09:02AM 39.6106 -78.1014 291° West 384 442 20,000  Level Cleveland Center
09:03AM 39.6467 -78.2242 291° West 374 430 20,000  Level Cleveland Center
09:04AM 39.6847 -78.3494 292° West 374 430 20,000  Level Cleveland Center
09:05AM 39.7328 -78.4639 299° West 374 430 20,000  Level Cleveland Center
09:06AM 39.8011 -78.5619 312° West 368 423 20,000 -600 Level Cleveland Center
09:07AM 39.8717 -78.6597 313° West 368 423 18,900 -1,200 Descending Cleveland Center
09:08AM 39.9422 -78.7608 312° West 361 415 17,800 -1,320 Descending Cleveland Center
09:08AM 39.9678 -78.7981 312° West 357 411 17,200 -1,320 Descending Cleveland Center
09:09AM 40.0061 -78.8458 316° Northwest 356 410 16,400 -1,380 Descending Cleveland Center
09:09AM 40.0336 -78.8883 310° West 349 402 15,800 -1,440 Descending Cleveland Center
09:10AM 40.0719 -78.9389 315° West 356 410 15,000 -1,440 Descending Cleveland Center
09:10AM 40.0956 -78.9792 307° West 345 397 14,400 -1,440 Descending Cleveland Center
09:11AM 40.1358 -79.0297 316° Northwest 356 410 13,600 -1,380 Descending Cleveland Center
09:11AM 40.1614 -79.0700 310° West 340 391 13,000 -1,440 Descending Cleveland Center
09:12AM 40.1975 -79.1181 315° West 346 398 12,200 -1,500 Descending Cleveland Center
09:13AM 40.2294 -79.1664 311° West 333 383 11,500 -1,440 Descending Cleveland Center
09:13AM 40.2611 -79.2064 316° Northwest 340 391 10,800 -1,440 Descending Cleveland Center
09:14AM 40.2867 -79.2522 306° West 327 376 10,100 -1,320 Descending Cleveland Center
09:14AM 40.3183 -79.2897 318° Northwest 327 376 9,500 -1,200 Descending Cleveland Center
09:15AM 40.3458 -79.3300 312° West 294 338 8,900 -1,200 Descending Cleveland Center
09:15AM 40.3714 -79.3650 314° West 305 351 8,300 -1,140 Descending Cleveland Center
09:16AM 40.4242 -79.4403 313° West 287 330 7,100 -1,200 Descending Cleveland Center
09:17AM 40.4750 -79.5158 312° West 280 322 5,900 -1,200 Descending Cleveland Center
09:19AM 40.5547 -79.6189 308° West  Level FlightAware Approximate
09:26AM 40.7667 -79.9500 303° West  Level FlightAware Approximate
09:27AM 40.7766 -79.9511 303° West  Level Estimated
09:28AM 40.7766 -79.9511 303° West  Level Estimated
09:29AM 40.7766 -79.9511 303° West  Level Estimated
09:30AM 40.7766 -79.9511 303° West  Level Estimated
09:31AM 40.7766 -79.9511 303° West  Level Estimated
09:32AM 40.7766 -79.9511 303° West  Level Estimated
09:33AM 40.7766 -79.9511 303° West  Level Estimated